Time;durP1;ratioP1;P1;durP2;ratioP2;P2;SDS_P1;SDS_P2;PMS_P1;PMS_P2;Temp;Humidity;BMP_temperature;BMP_pressure;BME280_temperature;BME280_humidity;BME280_pressure;Samples;Min_cycle;Max_cycle;Signal;HPM_P1;HPM_P2
2023/03/02 00:01:01;;;;;;;35.87;23.23;;;2.40;99.90;;;;;;5035793;28;20440;-68
2023/03/02 00:03:27;;;;;;;27.73;19.50;;;2.40;99.90;;;;;;5030697;28;20550;-69
2023/03/02 00:05:55;;;;;;;30.53;21.60;;;2.40;99.90;;;;;;5029994;28;20464;-69
2023/03/02 00:08:21;;;;;;;26.13;20.57;;;2.40;99.90;;;;;;5029163;28;21092;-68
2023/03/02 00:10:46;;;;;;;32.30;21.60;;;2.30;99.90;;;;;;5029491;28;20455;-69
2023/03/02 00:13:13;;;;;;;29.80;21.07;;;2.30;99.90;;;;;;5028177;28;20595;-69
2023/03/02 00:15:39;;;;;;;31.00;21.40;;;2.20;99.90;;;;;;5030698;28;20751;-69
2023/03/02 00:18:04;;;;;;;32.87;22.07;;;2.20;99.90;;;;;;5035830;28;20447;-67
2023/03/02 00:20:30;;;;;;;29.60;21.20;;;2.10;99.90;;;;;;5031236;28;20685;-68
2023/03/02 00:22:55;;;;;;;33.87;21.83;;;2.10;99.90;;;;;;5030175;28;20178;-67
2023/03/02 00:25:21;;;;;;;31.80;21.87;;;2.10;99.90;;;;;;5030066;28;20267;-68
2023/03/02 00:27:46;;;;;;;28.80;21.80;;;2.00;99.90;;;;;;5028538;28;20197;-68
2023/03/02 00:30:14;;;;;;;29.07;21.60;;;2.00;99.90;;;;;;5028643;28;20197;-69
2023/03/02 00:32:39;;;;;;;31.30;21.30;;;2.10;99.90;;;;;;5032689;28;20265;-69
2023/03/02 00:35:06;;;;;;;27.23;20.00;;;2.00;99.90;;;;;;5038317;28;20528;-68
2023/03/02 00:37:33;;;;;;;28.07;20.80;;;1.90;99.90;;;;;;5028952;28;20244;-68
2023/03/02 00:39:58;;;;;;;29.03;21.23;;;1.80;99.90;;;;;;5028729;28;20493;-70
2023/03/02 00:42:24;;;;;;;34.40;21.57;;;1.80;99.90;;;;;;5029199;28;20472;-69
2023/03/02 00:44:51;;;;;;;28.90;20.70;;;1.70;99.90;;;;;;5032025;28;20182;-68
2023/03/02 00:47:17;;;;;;;30.70;20.50;;;1.70;99.90;;;;;;5032544;28;20277;-69
2023/03/02 00:49:47;;;;;;;34.67;21.80;;;1.70;99.90;;;;;;5036478;28;20547;-69
2023/03/02 00:52:13;;;;;;;30.50;21.60;;;1.60;99.90;;;;;;5033988;28;20550;-69
2023/03/02 00:54:39;;;;;;;31.50;21.90;;;1.60;99.90;;;;;;5045492;28;20445;-68
2023/03/02 00:57:04;;;;;;;34.97;23.33;;;1.70;99.90;;;;;;5032118;28;20201;-68
2023/03/02 00:59:29;;;;;;;29.00;20.07;;;1.70;99.90;;;;;;5031616;28;20213;-69
2023/03/02 01:01:58;;;;;;;32.60;21.20;;;1.70;99.90;;;;;;5032128;28;20175;-69
2023/03/02 01:04:30;;;;;;;31.63;20.17;;;1.70;99.90;;;;;;5032842;28;20673;-68
2023/03/02 01:07:03;;;;;;;29.57;20.80;;;1.60;99.90;;;;;;5031677;28;20456;-68
2023/03/02 01:09:30;;;;;;;32.37;21.53;;;1.70;99.90;;;;;;5031383;28;20448;-69
2023/03/02 01:11:55;;;;;;;34.93;20.23;;;1.70;99.90;;;;;;5032498;28;20510;-69
2023/03/02 01:14:22;;;;;;;33.23;21.77;;;1.60;99.90;;;;;;5042738;28;20936;-69
2023/03/02 01:16:48;;;;;;;29.23;21.57;;;1.60;99.90;;;;;;5033554;28;20483;-68
2023/03/02 01:19:15;;;;;;;33.30;21.43;;;1.60;99.90;;;;;;5037255;28;20457;-68
2023/03/02 01:21:41;;;;;;;31.43;22.70;;;1.60;99.90;;;;;;5046267;28;20490;-68
2023/03/02 01:24:08;;;;;;;37.03;21.93;;;1.70;99.90;;;;;;5045166;28;20866;-68
2023/03/02 01:26:34;;;;;;;35.10;23.57;;;1.60;99.90;;;;;;5042210;28;20527;-68
2023/03/02 01:28:59;;;;;;;35.77;22.77;;;1.50;99.90;;;;;;5033275;28;20883;-68
2023/03/02 01:31:26;;;;;;;32.20;22.33;;;1.60;99.90;;;;;;5043888;28;20193;-68
2023/03/02 01:33:52;;;;;;;34.67;23.63;;;1.60;99.90;;;;;;5041007;28;20244;-68
2023/03/02 01:36:18;;;;;;;29.67;20.10;;;1.60;99.90;;;;;;5041062;28;20508;-68
2023/03/02 01:38:43;;;;;;;33.70;23.43;;;1.60;99.90;;;;;;5042267;28;20196;-68
2023/03/02 01:41:10;;;;;;;31.67;22.10;;;1.60;99.90;;;;;;5051668;28;20800;-68
2023/03/02 01:43:36;;;;;;;34.00;23.30;;;1.50;99.90;;;;;;5042035;28;20439;-68
2023/03/02 01:46:04;;;;;;;32.67;21.83;;;1.50;99.90;;;;;;5031856;28;20464;-68
2023/03/02 01:49:16;;;;;;;39.07;22.93;;;1.50;99.90;;;;;;5039180;28;20189;-68
2023/03/02 01:51:45;;;;;;;26.47;21.27;;;1.50;99.90;;;;;;5025527;28;20816;-68
2023/03/02 01:54:21;;;;;;;31.70;23.00;;;1.40;99.90;;;;;;5039305;28;20452;-68
2023/03/02 01:56:51;;;;;;;33.90;24.23;;;1.40;99.90;;;;;;5031333;28;20464;-68
2023/03/02 01:59:20;;;;;;;33.77;22.03;;;1.40;99.90;;;;;;5031101;28;20459;-68
2023/03/02 02:01:50;;;;;;;31.40;22.23;;;1.50;99.90;;;;;;5029621;28;20436;-68
2023/03/02 02:04:16;;;;;;;34.53;24.40;;;1.40;99.90;;;;;;5031769;28;20436;-68
2023/03/02 02:06:54;;;;;;;33.80;22.57;;;1.40;99.90;;;;;;5037653;28;20547;-68
2023/03/02 02:09:22;;;;;;;41.80;23.27;;;1.40;99.90;;;;;;5029811;28;20530;-68
2023/03/02 02:11:48;;;;;;;29.20;22.00;;;1.30;99.90;;;;;;5031872;28;20437;-68
2023/03/02 02:14:13;;;;;;;30.83;23.13;;;1.30;99.90;;;;;;5031508;28;20451;-68
2023/03/02 02:16:40;;;;;;;33.13;21.43;;;1.40;99.90;;;;;;5032371;28;20225;-68
2023/03/02 02:19:32;;;;;;;34.27;23.70;;;1.30;99.90;;;;;;5035155;28;20202;-68
2023/03/02 02:21:57;;;;;;;34.63;22.40;;;1.30;99.90;;;;;;5033655;28;20481;-68
2023/03/02 02:24:44;;;;;;;33.40;22.57;;;1.30;99.90;;;;;;5038897;28;20919;-68
2023/03/02 02:27:11;;;;;;;34.10;22.47;;;1.30;99.90;;;;;;5030963;28;20193;-68
2023/03/02 02:29:46;;;;;;;37.50;23.27;;;1.20;99.90;;;;;;5030215;28;20977;-68
2023/03/02 02:32:18;;;;;;;33.80;24.17;;;1.10;99.90;;;;;;5031285;28;20809;-68
2023/03/02 02:35:11;;;;;;;33.60;22.43;;;1.00;99.90;;;;;;5032201;28;20798;-68
2023/03/02 02:37:45;;;;;;;35.63;22.30;;;1.10;99.90;;;;;;5033820;28;20459;-68
2023/03/02 02:40:19;;;;;;;37.17;23.70;;;1.10;99.90;;;;;;5033510;28;20464;-68
2023/03/02 02:42:47;;;;;;;34.90;24.70;;;1.10;99.90;;;;;;5032358;28;20428;-68
2023/03/02 02:45:26;;;;;;;38.40;22.50;;;1.10;99.90;;;;;;5032006;28;20429;-68
2023/03/02 02:47:53;;;;;;;33.30;24.10;;;1.10;99.90;;;;;;5030713;28;20929;-68
2023/03/02 02:50:27;;;;;;;34.73;23.73;;;1.10;99.90;;;;;;5032390;28;20475;-68
2023/03/02 02:53:05;;;;;;;37.43;23.20;;;1.20;99.90;;;;;;5032757;28;20443;-68
2023/03/02 02:55:31;;;;;;;34.03;22.83;;;1.10;99.90;;;;;;5043377;28;20952;-68
2023/03/02 02:57:59;;;;;;;34.67;24.10;;;1.20;99.90;;;;;;5039680;28;20532;-68
2023/03/02 03:00:26;;;;;;;34.57;24.00;;;1.10;99.90;;;;;;5037266;28;20429;-68
2023/03/02 03:03:00;;;;;;;31.40;22.93;;;1.20;99.90;;;;;;5038388;28;20515;-68
2023/03/02 03:05:26;;;;;;;34.83;23.23;;;1.10;99.90;;;;;;5046548;28;20510;-68
2023/03/02 03:07:52;;;;;;;37.10;23.40;;;1.10;99.90;;;;;;5039709;28;20548;-68
2023/03/02 03:10:38;;;;;;;32.40;23.00;;;1.10;99.90;;;;;;5040682;28;20537;-68
2023/03/02 03:13:08;;;;;;;33.10;22.50;;;1.10;99.90;;;;;;5038484;28;20181;-68
2023/03/02 03:15:34;;;;;;;43.97;25.77;;;1.00;99.90;;;;;;5040134;28;20462;-68
2023/03/02 03:17:59;;;;;;;32.60;21.50;;;1.00;99.90;;;;;;5038860;28;20817;-68
2023/03/02 03:20:26;;;;;;;38.63;24.73;;;1.00;99.90;;;;;;5040454;28;20705;-68
2023/03/02 03:22:52;;;;;;;34.70;22.47;;;1.00;99.90;;;;;;5040479;28;20185;-68
2023/03/02 03:25:25;;;;;;;31.03;23.83;;;0.90;99.90;;;;;;5039502;28;20447;-68
2023/03/02 03:27:51;;;;;;;38.57;23.60;;;0.90;99.90;;;;;;5033432;28;20789;-68
2023/03/02 03:30:16;;;;;;;34.97;22.67;;;0.80;99.90;;;;;;5039671;28;20514;-68
2023/03/02 03:32:42;;;;;;;33.93;22.37;;;0.80;99.90;;;;;;5044024;28;20636;-68
2023/03/02 03:35:10;;;;;;;35.37;24.53;;;0.80;99.90;;;;;;5038637;28;20210;-68
2023/03/02 03:37:38;;;;;;;34.20;22.73;;;0.70;99.90;;;;;;5046180;28;20505;-68
2023/03/02 03:40:05;;;;;;;32.07;21.53;;;0.70;99.90;;;;;;5038531;28;20465;-68
2023/03/02 03:42:31;;;;;;;33.37;24.07;;;0.80;99.90;;;;;;5040219;28;20932;-68
2023/03/02 03:44:57;;;;;;;33.57;24.10;;;0.80;99.90;;;;;;5042701;28;20436;-68
2023/03/02 03:47:22;;;;;;;38.80;24.20;;;0.80;99.90;;;;;;5049698;28;20224;-68
2023/03/02 03:49:48;;;;;;;34.93;23.77;;;0.80;99.90;;;;;;5037478;28;20204;-68
2023/03/02 03:52:13;;;;;;;37.50;25.00;;;0.70;99.90;;;;;;5044527;28;20194;-68
2023/03/02 03:54:39;;;;;;;35.10;24.10;;;0.70;99.90;;;;;;5043614;28;20259;-68
2023/03/02 03:57:05;;;;;;;38.03;23.47;;;0.60;99.90;;;;;;5039839;28;20265;-68
2023/03/02 03:59:32;;;;;;;39.60;22.07;;;0.60;99.90;;;;;;5044646;28;20209;-68
2023/03/02 04:02:00;;;;;;;35.80;23.90;;;0.60;99.90;;;;;;5038061;28;20436;-68
2023/03/02 04:04:32;;;;;;;28.77;22.87;;;0.70;99.90;;;;;;5039872;28;20942;-68
2023/03/02 04:06:57;;;;;;;33.67;21.33;;;0.70;99.90;;;;;;5041784;28;20466;-68
2023/03/02 04:09:24;;;;;;;38.07;23.83;;;0.60;99.90;;;;;;5035731;28;20444;-68
2023/03/02 04:11:52;;;;;;;35.13;23.33;;;0.60;99.90;;;;;;5035402;28;20260;-68
2023/03/02 04:14:19;;;;;;;39.63;25.30;;;0.60;99.90;;;;;;5042599;28;20449;-67
2023/03/02 04:16:45;;;;;;;37.57;23.97;;;0.70;99.90;;;;;;5033223;28;20564;-68
2023/03/02 04:19:12;;;;;;;35.90;24.87;;;0.70;99.90;;;;;;5036104;28;20471;-68
2023/03/02 04:21:40;;;;;;;38.37;23.40;;;0.70;99.90;;;;;;5049466;28;20438;-68
2023/03/02 04:24:06;;;;;;;33.27;22.93;;;0.60;99.90;;;;;;5041021;28;20463;-68
2023/03/02 04:26:33;;;;;;;36.47;25.30;;;0.60;99.90;;;;;;5043738;28;20452;-68
2023/03/02 04:28:59;;;;;;;33.90;22.97;;;0.60;99.90;;;;;;5045264;28;20431;-68
2023/03/02 04:31:24;;;;;;;38.43;23.70;;;0.60;99.90;;;;;;5045940;28;20485;-68
2023/03/02 04:33:50;;;;;;;39.73;24.13;;;0.60;99.90;;;;;;5047631;28;20178;-67
2023/03/02 04:36:15;;;;;;;38.37;25.27;;;0.60;99.90;;;;;;5043647;28;20208;-68
2023/03/02 04:38:41;;;;;;;34.23;23.73;;;0.60;99.90;;;;;;5044136;28;20201;-68
2023/03/02 04:41:06;;;;;;;36.43;23.97;;;0.60;99.90;;;;;;5037396;28;20609;-68
2023/03/02 04:43:32;;;;;;;35.47;23.50;;;0.50;99.90;;;;;;5033743;28;20701;-68
2023/03/02 04:45:58;;;;;;;38.50;23.40;;;0.50;99.90;;;;;;5043090;28;20202;-68
2023/03/02 04:48:24;;;;;;;37.03;23.90;;;0.50;99.90;;;;;;5041285;28;20177;-68
2023/03/02 04:50:49;;;;;;;33.70;22.60;;;0.50;99.90;;;;;;5050395;28;20578;-68
2023/03/02 04:53:15;;;;;;;37.33;25.37;;;0.50;99.90;;;;;;5045580;28;20478;-68
2023/03/02 04:55:41;;;;;;;39.93;27.17;;;0.40;99.90;;;;;;5045944;28;20194;-68
2023/03/02 04:58:07;;;;;;;38.33;23.97;;;0.50;99.90;;;;;;5032616;28;20612;-68
2023/03/02 05:00:34;;;;;;;32.60;22.97;;;0.40;99.90;;;;;;5032587;28;20953;-68
2023/03/02 05:03:01;;;;;;;31.10;21.27;;;0.40;99.90;;;;;;5037057;28;20182;-68
2023/03/02 05:05:27;;;;;;;31.87;22.50;;;0.30;99.90;;;;;;5033536;28;20432;-68
2023/03/02 05:07:53;;;;;;;37.17;21.43;;;0.30;99.90;;;;;;5046055;28;20428;-68
2023/03/02 05:10:21;;;;;;;40.40;24.40;;;0.30;99.90;;;;;;5036470;28;20445;-68
2023/03/02 05:13:03;;;;;;;40.30;25.23;;;0.40;99.90;;;;;;5031516;28;20477;-68
2023/03/02 05:15:33;;;;;;;39.70;23.70;;;0.40;99.90;;;;;;5032219;28;20440;-68
2023/03/02 05:18:00;;;;;;;34.43;22.47;;;0.40;99.90;;;;;;5033830;28;20447;-68
2023/03/02 05:20:26;;;;;;;34.20;23.90;;;0.40;99.90;;;;;;5032706;28;21020;-68
2023/03/02 05:23:01;;;;;;;41.30;23.30;;;0.50;99.90;;;;;;5030865;28;20429;-68
2023/03/02 05:25:28;;;;;;;33.43;22.23;;;0.60;99.90;;;;;;5035604;28;20489;-68
2023/03/02 05:27:54;;;;;;;37.50;25.60;;;0.70;99.90;;;;;;5037553;28;20435;-68
2023/03/02 05:30:21;;;;;;;45.60;24.40;;;0.70;99.90;;;;;;5045392;28;20508;-68
2023/03/02 05:32:47;;;;;;;34.60;22.90;;;0.80;99.90;;;;;;5041533;28;20190;-68
2023/03/02 05:35:13;;;;;;;33.10;24.20;;;0.80;99.90;;;;;;5043092;28;20428;-68
2023/03/02 05:37:41;;;;;;;35.50;24.53;;;0.90;99.90;;;;;;5044882;28;20506;-68
2023/03/02 05:40:10;;;;;;;40.27;25.63;;;0.90;99.90;;;;;;5042031;28;20202;-69
2023/03/02 05:42:36;;;;;;;43.00;26.93;;;1.00;99.90;;;;;;5041031;28;20444;-68
2023/03/02 05:45:03;;;;;;;39.50;26.37;;;1.10;99.90;;;;;;5046784;28;20477;-68
2023/03/02 05:47:29;;;;;;;34.27;23.33;;;1.10;99.90;;;;;;5039257;28;20225;-69
2023/03/02 05:49:54;;;;;;;36.17;25.60;;;1.10;99.90;;;;;;5031499;28;20448;-68
2023/03/02 05:52:20;;;;;;;38.90;25.77;;;1.10;99.90;;;;;;5041728;28;20189;-69
2023/03/02 05:54:45;;;;;;;40.13;25.50;;;1.20;99.90;;;;;;5045067;28;20184;-68
2023/03/02 05:57:11;;;;;;;43.93;25.80;;;1.30;99.90;;;;;;5045438;28;20225;-68
2023/03/02 05:59:37;;;;;;;38.07;23.83;;;1.30;99.90;;;;;;5032810;28;20691;-68
2023/03/02 06:02:03;;;;;;;42.80;24.10;;;1.40;99.90;;;;;;5032045;28;20182;-68
2023/03/02 06:04:28;;;;;;;38.33;25.70;;;1.40;99.90;;;;;;5040302;28;20180;-68
2023/03/02 06:06:54;;;;;;;35.97;24.00;;;1.40;99.90;;;;;;5035447;28;20464;-69
2023/03/02 06:09:21;;;;;;;38.20;25.07;;;1.40;99.90;;;;;;5033775;28;20186;-69
2023/03/02 06:11:46;;;;;;;37.53;24.93;;;1.50;99.90;;;;;;5033908;28;20174;-68
2023/03/02 06:14:12;;;;;;;39.10;23.80;;;1.50;99.90;;;;;;5034975;28;20512;-67
2023/03/02 06:16:37;;;;;;;34.20;25.50;;;1.60;99.90;;;;;;5038159;28;20284;-68
2023/03/02 06:19:03;;;;;;;37.87;22.83;;;1.50;99.90;;;;;;5034568;28;20197;-68
2023/03/02 06:21:28;;;;;;;38.00;23.80;;;1.60;99.90;;;;;;5044978;28;20189;-70
2023/03/02 06:23:54;;;;;;;34.17;23.93;;;1.70;99.90;;;;;;5041848;28;20182;-69
2023/03/02 06:26:20;;;;;;;31.10;22.20;;;1.70;99.90;;;;;;5047038;28;20239;-66
2023/03/02 06:28:45;;;;;;;36.00;25.27;;;1.70;99.90;;;;;;5040229;28;20182;-66
2023/03/02 06:31:10;;;;;;;35.07;23.97;;;1.70;99.90;;;;;;5037483;28;20599;-66
2023/03/02 06:33:36;;;;;;;35.43;24.33;;;1.80;99.90;;;;;;5043882;28;20186;-66
2023/03/02 06:36:02;;;;;;;33.20;23.70;;;1.80;99.90;;;;;;5034218;28;20198;-66
2023/03/02 06:38:27;;;;;;;33.87;24.30;;;1.80;99.90;;;;;;5031711;28;20182;-66
2023/03/02 06:40:53;;;;;;;35.80;24.57;;;1.80;99.90;;;;;;5032517;28;20647;-67
2023/03/02 06:43:18;;;;;;;41.77;25.83;;;1.80;99.90;;;;;;5032407;28;20184;-66
2023/03/02 06:45:44;;;;;;;30.53;22.63;;;1.80;99.90;;;;;;5032706;28;20387;-64
2023/03/02 06:48:10;;;;;;;36.40;23.30;;;1.80;99.90;;;;;;5032357;28;20651;-64
2023/03/02 06:50:35;;;;;;;40.73;25.17;;;1.80;99.90;;;;;;5032510;28;20424;-64
2023/03/02 06:53:01;;;;;;;39.37;25.43;;;1.90;99.90;;;;;;5032814;28;20181;-65
2023/03/02 06:55:27;;;;;;;35.63;24.77;;;1.90;99.90;;;;;;5032568;28;20180;-65
2023/03/02 06:57:53;;;;;;;37.27;24.70;;;1.90;99.90;;;;;;5032583;28;20492;-65
2023/03/02 07:00:24;;;;;;;39.90;27.57;;;1.90;99.90;;;;;;5031877;28;20193;-65
2023/03/02 07:02:51;;;;;;;43.33;30.00;;;1.80;99.90;;;;;;5032546;28;20705;-65
2023/03/02 07:05:18;;;;;;;35.93;25.70;;;1.90;99.90;;;;;;5032348;28;20413;-64
2023/03/02 07:07:43;;;;;;;38.50;26.20;;;1.90;99.90;;;;;;5032504;28;20831;-64
2023/03/02 07:10:11;;;;;;;36.77;25.13;;;1.90;99.90;;;;;;5031520;28;20429;-64
2023/03/02 07:12:36;;;;;;;35.30;24.03;;;2.10;99.90;;;;;;5032330;28;20516;-65
2023/03/02 07:15:02;;;;;;;39.27;24.63;;;2.10;99.90;;;;;;5032557;28;20436;-65
2023/03/02 07:17:28;;;;;;;32.20;23.60;;;2.20;99.90;;;;;;5052458;23;20304;-70
2023/03/02 07:19:53;;;;;;;41.50;25.20;;;2.20;99.90;;;;;;5029331;28;20591;-67
2023/03/02 07:22:19;;;;;;;36.10;25.80;;;2.20;99.90;;;;;;5032177;28;20193;-71
2023/03/02 07:24:44;;;;;;;40.20;26.63;;;2.20;99.90;;;;;;5050212;28;20188;-68
2023/03/02 07:27:10;;;;;;;37.80;25.10;;;2.30;99.90;;;;;;5051996;28;20185;-68
2023/03/02 07:29:36;;;;;;;35.40;24.20;;;2.40;99.90;;;;;;5051340;28;20173;-68
2023/03/02 07:32:01;;;;;;;37.60;23.90;;;2.40;99.90;;;;;;5050697;28;20177;-68
2023/03/02 07:34:27;;;;;;;32.00;22.90;;;2.40;99.90;;;;;;5052007;28;20208;-69
2023/03/02 07:36:52;;;;;;;35.53;24.33;;;2.40;99.90;;;;;;5051831;28;20220;-67
2023/03/02 07:39:19;;;;;;;40.27;26.27;;;2.40;99.90;;;;;;5051181;28;20651;-68
2023/03/02 07:41:44;;;;;;;32.20;24.13;;;2.50;99.90;;;;;;5051759;28;20197;-68
2023/03/02 07:44:10;;;;;;;36.17;24.37;;;2.50;99.90;;;;;;5051934;28;20443;-68
2023/03/02 07:46:35;;;;;;;35.87;24.10;;;2.60;99.90;;;;;;5050461;28;20194;-68
2023/03/02 07:49:01;;;;;;;32.73;23.53;;;2.60;99.90;;;;;;5051099;28;20243;-68
2023/03/02 07:51:26;;;;;;;42.93;25.00;;;2.80;99.90;;;;;;5051781;28;20510;-68
2023/03/02 07:53:52;;;;;;;36.50;23.40;;;2.90;99.90;;;;;;5051964;28;20627;-68
2023/03/02 07:56:19;;;;;;;37.47;24.50;;;2.80;99.90;;;;;;5055655;28;20650;-69
2023/03/02 07:58:45;;;;;;;35.10;26.40;;;3.00;99.90;;;;;;5055083;28;20196;-68
2023/03/02 08:01:10;;;;;;;34.97;23.03;;;3.10;99.90;;;;;;5055744;28;20408;-71
2023/03/02 08:03:36;;;;;;;36.10;23.83;;;3.20;99.90;;;;;;5043642;28;20233;-71
2023/03/02 08:06:06;;;;;;;36.43;22.43;;;3.30;99.90;;;;;;5035669;28;20197;-69
2023/03/02 08:08:32;;;;;;;28.97;21.60;;;3.40;99.90;;;;;;5034948;28;20174;-69
2023/03/02 08:11:10;;;;;;;32.10;23.90;;;3.50;99.90;;;;;;5035748;28;20423;-68
2023/03/02 08:13:36;;;;;;;32.03;22.13;;;3.40;99.90;;;;;;5035657;28;20180;-67
2023/03/02 08:16:04;;;;;;;36.93;23.90;;;3.40;99.90;;;;;;5035459;28;20832;-68
2023/03/02 08:18:29;;;;;;;31.47;23.30;;;3.40;99.90;;;;;;5034637;28;20425;-68
2023/03/02 08:20:55;;;;;;;34.03;22.77;;;3.40;99.90;;;;;;5035479;28;20443;-70
2023/03/02 08:23:21;;;;;;;31.73;21.30;;;3.50;99.90;;;;;;5035430;28;20189;-70
2023/03/02 08:25:47;;;;;;;29.00;21.80;;;3.40;99.90;;;;;;5035258;28;20249;-69
2023/03/02 08:28:13;;;;;;;32.63;21.90;;;3.40;99.90;;;;;;5034704;28;20440;-71
2023/03/02 08:30:38;;;;;;;32.80;22.50;;;3.50;99.90;;;;;;5035208;28;20994;-70
2023/03/02 08:33:04;;;;;;;35.80;22.40;;;3.50;99.90;;;;;;5035194;28;20201;-71
2023/03/02 08:35:29;;;;;;;28.93;21.57;;;3.50;99.90;;;;;;5035175;28;20171;-70
2023/03/02 08:37:55;;;;;;;35.63;21.53;;;3.50;99.90;;;;;;5035184;28;20190;-70
2023/03/02 08:40:20;;;;;;;37.53;23.27;;;3.60;99.90;;;;;;5034405;28;20206;-71
2023/03/02 08:42:47;;;;;;;36.90;23.87;;;3.60;99.90;;;;;;5035175;28;20191;-70
2023/03/02 08:45:12;;;;;;;33.27;23.03;;;3.70;99.90;;;;;;5035022;28;20245;-70
2023/03/02 08:47:38;;;;;;;29.50;21.83;;;3.90;99.90;;;;;;5034802;28;20790;-71
2023/03/02 08:50:04;;;;;;;39.43;24.17;;;4.00;99.90;;;;;;5034223;28;20170;-70
2023/03/02 08:52:35;;;;;;;43.67;23.30;;;4.00;99.90;;;;;;5034819;28;20193;-71
2023/03/02 08:55:00;;;;;;;29.67;21.70;;;4.10;99.90;;;;;;5034852;28;20518;-68
2023/03/02 08:57:26;;;;;;;35.40;21.97;;;4.10;99.90;;;;;;5034721;28;20486;-70
2023/03/02 08:59:51;;;;;;;32.30;24.07;;;4.20;99.90;;;;;;5034050;28;20209;-70
2023/03/02 09:02:17;;;;;;;33.37;22.63;;;4.30;99.90;;;;;;5034725;28;20636;-70
2023/03/02 09:04:43;;;;;;;32.73;21.90;;;4.60;99.90;;;;;;5034826;28;20224;-71
2023/03/02 09:07:09;;;;;;;32.27;21.67;;;4.80;99.90;;;;;;5034344;28;20202;-70
2023/03/02 09:09:34;;;;;;;38.70;23.90;;;4.90;99.90;;;;;;5033798;28;20205;-70
2023/03/02 09:12:00;;;;;;;33.47;20.90;;;5.00;99.90;;;;;;5034520;28;20428;-70
2023/03/02 09:14:26;;;;;;;32.27;20.97;;;5.20;99.90;;;;;;5034460;28;20253;-70
2023/03/02 09:16:52;;;;;;;28.03;21.27;;;5.30;99.90;;;;;;5034257;28;20681;-71
2023/03/02 09:19:18;;;;;;;32.80;22.30;;;5.50;99.90;;;;;;5033486;28;20607;-70
2023/03/02 09:21:44;;;;;;;29.17;21.57;;;5.50;99.90;;;;;;5034262;28;20419;-69
2023/03/02 09:24:10;;;;;;;27.10;21.37;;;5.60;99.90;;;;;;5034311;28;20421;-69
2023/03/02 09:26:37;;;;;;;27.43;19.97;;;5.70;99.90;;;;;;5034320;28;20202;-67
2023/03/02 09:29:03;;;;;;;29.60;20.77;;;6.00;99.90;;;;;;5033534;28;20289;-69
2023/03/02 09:31:29;;;;;;;27.23;21.50;;;6.20;99.90;;;;;;5034205;28;20504;-69
2023/03/02 09:33:55;;;;;;;26.13;18.90;;;6.20;99.90;;;;;;5034105;28;20179;-68
2023/03/02 09:36:23;;;;;;;28.97;19.33;;;6.50;99.90;;;;;;5034035;28;20196;-69
2023/03/02 09:38:48;;;;;;;25.13;20.63;;;6.80;99.90;;;;;;5033212;28;20457;-67
2023/03/02 09:41:20;;;;;;;29.00;20.63;;;7.00;99.90;;;;;;5034044;28;20428;-69
2023/03/02 09:44:21;;;;;;;28.10;20.33;;;6.90;99.90;;;;;;5033982;28;20162;-68
2023/03/02 09:46:48;;;;;;;29.20;19.87;;;6.80;99.90;;;;;;5034071;28;20429;-68
2023/03/02 09:49:40;;;;;;;35.70;23.03;;;6.80;99.90;;;;;;5033380;28;20504;-68
2023/03/02 09:52:25;;;;;;;29.33;20.33;;;6.70;99.90;;;;;;5033750;28;20432;-68
2023/03/02 09:54:50;;;;;;;25.20;18.70;;;6.70;99.90;;;;;;5033836;28;20421;-70
2023/03/02 09:57:31;;;;;;;26.70;20.63;;;6.70;99.90;;;;;;5020225;28;20515;-68
2023/03/02 10:00:04;;;;;;;29.33;19.77;;;6.90;99.90;;;;;;5013198;28;20225;-68
2023/03/02 10:02:40;;;;;;;27.43;20.87;;;6.80;99.90;;;;;;5013831;28;20415;-68
2023/03/02 10:05:19;;;;;;;23.70;19.67;;;7.00;99.90;;;;;;5014036;28;20419;-69
2023/03/02 10:07:45;;;;;;;27.50;20.07;;;7.10;99.90;;;;;;5013677;28;20438;-68
2023/03/02 10:10:32;;;;;;;31.67;19.60;;;7.10;99.90;;;;;;5013059;28;20421;-68
2023/03/02 10:13:17;;;;;;;28.47;21.87;;;7.10;99.90;;;;;;5013579;28;20781;-68
2023/03/02 10:15:51;;;;;;;29.50;19.77;;;7.00;99.90;;;;;;5013277;28;20751;-68
2023/03/02 10:18:29;;;;;;;25.53;19.73;;;7.00;99.90;;;;;;5012204;28;20951;-69
2023/03/02 10:21:20;;;;;;;25.00;19.53;;;7.10;99.90;;;;;;5013589;28;20428;-70
2023/03/02 10:24:04;;;;;;;26.77;19.50;;;7.10;99.90;;;;;;5013397;28;20513;-68
2023/03/02 10:26:41;;;;;;;23.43;18.40;;;7.20;99.90;;;;;;5013376;28;20919;-68
2023/03/02 10:29:17;;;;;;;27.30;19.60;;;7.40;99.90;;;;;;5012655;28;20513;-67
2023/03/02 10:31:44;;;;;;;24.70;19.70;;;7.30;99.90;;;;;;5012998;28;20421;-68
2023/03/02 10:34:10;;;;;;;27.13;20.57;;;7.50;99.90;;;;;;5013154;28;20418;-68
2023/03/02 10:36:39;;;;;;;25.77;18.97;;;7.50;99.90;;;;;;5013130;28;20455;-67
2023/03/02 10:39:13;;;;;;;25.60;19.23;;;7.60;99.90;;;;;;5012521;28;20461;-68
2023/03/02 10:41:48;;;;;;;24.67;18.97;;;7.70;99.90;;;;;;5013489;28;20448;-68
2023/03/02 10:44:20;;;;;;;26.90;19.90;;;7.80;99.90;;;;;;5013064;28;20413;-68
2023/03/02 10:46:46;;;;;;;30.63;21.30;;;7.90;99.90;;;;;;5012992;28;20442;-68
2023/03/02 10:49:25;;;;;;;28.37;20.20;;;8.20;99.90;;;;;;5012209;28;20504;-70
2023/03/02 10:51:59;;;;;;;27.10;20.10;;;8.40;99.90;;;;;;5012883;28;20228;-69
2023/03/02 10:54:27;;;;;;;26.30;20.80;;;8.40;99.90;;;;;;5012784;28;20421;-69
2023/03/02 10:56:55;;;;;;;29.50;20.40;;;8.30;99.90;;;;;;5012769;28;20825;-67
2023/03/02 10:59:24;;;;;;;27.43;21.10;;;8.30;99.90;;;;;;5012065;28;20556;-68
2023/03/02 11:02:14;;;;;;;30.33;20.97;;;8.60;99.90;;;;;;5012761;28;20465;-67
2023/03/02 11:04:40;;;;;;;23.80;18.67;;;8.70;99.90;;;;;;5012990;28;20414;-68
2023/03/02 11:07:13;;;;;;;29.27;21.27;;;8.80;99.90;;;;;;5012459;28;20440;-68
2023/03/02 11:09:39;;;;;;;26.50;20.63;;;9.20;99.90;;;;;;5011941;28;21017;-68
2023/03/02 11:12:13;;;;;;;27.47;20.73;;;9.60;99.90;;;;;;5012586;28;20501;-68
2023/03/02 11:14:38;;;;;;;25.50;21.97;;;10.20;99.90;;;;;;5012929;28;20624;-68
2023/03/02 11:17:28;;;;;;;27.37;20.70;;;10.50;99.90;;;;;;5012408;28;20453;-69
2023/03/02 11:19:55;;;;;;;25.33;22.37;;;10.50;99.90;;;;;;5011667;28;20709;-67
2023/03/02 11:22:57;;;;;;;27.70;21.50;;;10.50;99.90;;;;;;5012491;28;20783;-68
2023/03/02 11:25:36;;;;;;;28.63;23.07;;;9.60;99.90;;;;;;5008950;28;21040;-68
2023/03/02 11:28:16;;;;;;;26.90;20.90;;;9.90;99.90;;;;;;5012328;28;20448;-67
2023/03/02 11:30:48;;;;;;;27.43;22.40;;;10.40;99.90;;;;;;5011915;28;20792;-68
2023/03/02 11:33:13;;;;;;;30.00;21.33;;;10.50;99.90;;;;;;5012455;28;20409;-67
2023/03/02 11:36:01;;;;;;;27.40;21.80;;;10.50;99.90;;;;;;5012232;28;20977;-68
2023/03/02 11:38:45;;;;;;;29.53;23.63;;;10.60;99.90;;;;;;5011428;28;20178;-67
2023/03/02 11:41:17;;;;;;;28.30;23.03;;;10.40;99.90;;;;;;5012355;28;20402;-67
2023/03/02 11:43:43;;;;;;;28.90;23.40;;;9.70;99.90;;;;;;5012259;28;20939;-68
2023/03/02 11:46:23;;;;;;;24.30;21.23;;;10.10;99.90;;;;;;5019354;28;20462;-68
2023/03/02 11:48:52;;;;;;;24.87;21.90;;;11.80;99.90;;;;;;5030716;28;20174;-67
2023/03/02 11:51:22;;;;;;;26.50;22.07;;;14.70;94.50;;;;;;5023213;28;20443;-67
2023/03/02 11:53:54;;;;;;;23.17;20.67;;;17.30;84.40;;;;;;5028764;28;20431;-66
2023/03/02 11:56:20;;;;;;;27.07;22.67;;;17.90;73.00;;;;;;5046685;28;20473;-66
2023/03/02 11:58:53;;;;;;;24.20;21.67;;;19.70;65.50;;;;;;5034290;28;20448;-67
2023/03/02 12:01:21;;;;;;;24.67;22.17;;;19.60;59.90;;;;;;5043310;28;20458;-69
2023/03/02 12:03:47;;;;;;;26.13;23.57;;;19.40;60.20;;;;;;5037223;28;20425;-67
2023/03/02 12:06:21;;;;;;;24.20;21.70;;;18.80;60.00;;;;;;5023101;28;20449;-67
2023/03/02 12:08:50;;;;;;;25.80;23.20;;;20.40;55.30;;;;;;5016860;28;20216;-67
2023/03/02 12:11:15;;;;;;;23.60;21.27;;;21.40;51.80;;;;;;5031656;28;20416;-67
2023/03/02 12:13:43;;;;;;;26.20;23.20;;;23.10;51.80;;;;;;5031589;28;20425;-69
2023/03/02 12:16:35;;;;;;;25.67;23.23;;;22.40;50.40;;;;;;5031671;28;20217;-67
2023/03/02 12:19:24;;;;;;;24.27;22.07;;;20.70;51.90;;;;;;5031067;28;20970;-66
2023/03/02 12:22:05;;;;;;;27.07;24.23;;;20.50;52.40;;;;;;5031595;28;20500;-67
2023/03/02 12:24:33;;;;;;;24.70;22.30;;;20.10;52.70;;;;;;5031795;28;20500;-66
2023/03/02 12:27:06;;;;;;;24.90;22.63;;;21.30;52.60;;;;;;5031516;28;20455;-66
2023/03/02 12:29:41;;;;;;;28.60;25.60;;;23.20;49.70;;;;;;5030849;28;20417;-67
2023/03/02 12:32:25;;;;;;;28.83;25.87;;;22.90;48.60;;;;;;5031527;28;20420;-67
2023/03/02 12:35:00;;;;;;;26.43;23.70;;;22.80;48.00;;;;;;5031447;28;20400;-68
2023/03/02 12:37:45;;;;;;;26.00;22.53;;;22.90;47.20;;;;;;5031346;28;21099;-69
2023/03/02 12:40:28;;;;;;;25.50;22.93;;;22.50;47.30;;;;;;5031008;28;20436;-67
2023/03/02 12:43:15;;;;;;;24.50;22.40;;;23.20;47.40;;;;;;5034997;28;20441;-67
2023/03/02 12:46:02;;;;;;;24.70;22.47;;;24.30;46.30;;;;;;5035289;28;20412;-67